Time;durP1;ratioP1;P1;durP2;ratioP2;P2;SDS_P1;SDS_P2;PMS_P1;PMS_P2;Temp;Humidity;BMP_temperature;BMP_pressure;BME280_temperature;BME280_humidity;BME280_pressure;Samples;Min_cycle;Max_cycle;Signal;HPM_P1;HPM_P2
2022/06/12 00:00:17;;;;;;;5.70;3.50;;;;;;;;;;516316;28;1296;-88
2022/06/12 00:00:33;;;;;;;4.80;3.35;;;;;;;;;;514308;28;1122;-88
2022/06/12 00:00:51;;;;;;;5.28;3.50;;;;;;;;;;515327;28;1376;-88
2022/06/12 00:01:07;;;;;;;5.07;3.30;;;;;;;;;;517539;28;1249;-89
2022/06/12 00:01:24;;;;;;;4.03;3.10;;;;;;;;;;517225;28;1493;-88
2022/06/12 00:01:39;;;;;;;3.55;3.20;;;;;;;;;;517911;28;1290;-88
2022/06/12 00:01:57;;;;;;;4.65;3.22;;;;;;;;;;518333;28;1289;-88
2022/06/12 00:02:12;;;;;;;4.82;3.10;;;;;;;;;;516088;28;1449;-88
2022/06/12 00:02:27;;;;;;;3.60;3.20;;;;;;;;;;516120;28;1176;-88
2022/06/12 00:02:43;;;;;;;3.90;3.30;;;;;;;;;;516133;28;1481;-88
2022/06/12 00:03:00;;;;;;;3.97;3.30;;;;;;;;;;515475;28;1759;-88
2022/06/12 00:03:18;;;;;;;4.20;3.30;;;;;;;;;;518374;28;1367;-88
2022/06/12 00:03:34;;;;;;;4.60;3.30;;;;;;;;;;518427;28;1323;-88
2022/06/12 00:03:49;;;;;;;3.90;3.20;;;;;;;;;;518412;28;1265;-88
2022/06/12 00:04:05;;;;;;;4.00;3.47;;;;;;;;;;518365;28;1306;-88
2022/06/12 00:04:21;;;;;;;5.13;3.60;;;;;;;;;;514287;28;1282;-88
2022/06/12 00:04:36;;;;;;;5.70;3.40;;;;;;;;;;516372;28;1261;-88
2022/06/12 00:04:52;;;;;;;4.30;3.20;;;;;;;;;;516426;28;850;-88
2022/06/12 00:05:07;;;;;;;4.43;3.30;;;;;;;;;;516255;28;1373;-88
2022/06/12 00:05:26;;;;;;;5.25;3.42;;;;;;;;;;516424;28;947;-88
2022/06/12 00:05:45;;;;;;;5.10;3.30;;;;;;;;;;516303;28;1422;-88
2022/06/12 00:06:03;;;;;;;4.68;3.20;;;;;;;;;;515573;28;1449;-88
2022/06/12 00:06:21;;;;;;;5.28;3.35;;;;;;;;;;518614;28;1501;-88
2022/06/12 00:06:36;;;;;;;5.25;3.30;;;;;;;;;;518492;28;1263;-88
2022/06/12 00:06:52;;;;;;;4.88;3.20;;;;;;;;;;518460;28;908;-88
2022/06/12 00:07:08;;;;;;;4.30;3.30;;;;;;;;;;516318;28;1228;-88
2022/06/12 00:07:23;;;;;;;5.13;3.33;;;;;;;;;;516311;28;913;-88
2022/06/12 00:07:39;;;;;;;7.00;3.47;;;;;;;;;;516265;28;942;-89
2022/06/12 00:07:54;;;;;;;8.20;3.50;;;;;;;;;;517406;28;949;-89
2022/06/12 00:08:10;;;;;;;6.53;3.40;;;;;;;;;;516689;28;1648;-89
2022/06/12 00:08:28;;;;;;;4.47;3.30;;;;;;;;;;516597;28;1260;-89
2022/06/12 00:08:44;;;;;;;4.35;3.40;;;;;;;;;;518229;28;1344;-89
2022/06/12 00:08:59;;;;;;;4.90;3.47;;;;;;;;;;518857;28;1218;-88
2022/06/12 00:09:15;;;;;;;4.50;3.40;;;;;;;;;;520344;28;1276;-88
2022/06/12 00:09:31;;;;;;;4.10;3.35;;;;;;;;;;520333;28;1303;-88
2022/06/12 00:09:46;;;;;;;5.23;3.33;;;;;;;;;;518430;28;1286;-88
2022/06/12 00:10:03;;;;;;;6.27;3.30;;;;;;;;;;518384;28;1291;-88
2022/06/12 00:10:19;;;;;;;5.03;3.17;;;;;;;;;;518242;28;1347;-88
2022/06/12 00:10:37;;;;;;;5.43;3.13;;;;;;;;;;518313;28;1410;-88
2022/06/12 00:10:55;;;;;;;5.60;3.20;;;;;;;;;;516351;28;1248;-88
2022/06/12 00:11:12;;;;;;;3.80;3.20;;;;;;;;;;516303;28;905;-89
2022/06/12 00:11:28;;;;;;;4.50;3.30;;;;;;;;;;516219;28;1307;-88
2022/06/12 00:11:44;;;;;;;6.53;3.40;;;;;;;;;;518326;28;1353;-88
2022/06/12 00:11:59;;;;;;;6.53;3.40;;;;;;;;;;516334;28;1324;-88
2022/06/12 00:12:15;;;;;;;6.55;3.30;;;;;;;;;;514319;28;1284;-88
2022/06/12 00:12:30;;;;;;;5.07;3.10;;;;;;;;;;515709;28;818;-89
2022/06/12 00:12:47;;;;;;;4.75;3.10;;;;;;;;;;514357;28;1187;-88
2022/06/12 00:13:04;;;;;;;6.45;3.20;;;;;;;;;;512320;29;1237;-88
2022/06/12 00:13:25;;;;;;;5.65;3.20;;;;;;;;;;514265;28;1305;-88
2022/06/12 00:13:47;;;;;;;4.00;3.20;;;;;;;;;;515730;28;846;-89
2022/06/12 00:14:04;;;;;;;3.97;3.28;;;;;;;;;;516318;28;1280;-89
2022/06/12 00:14:19;;;;;;;4.78;3.15;;;;;;;;;;518278;28;1036;-88
2022/06/12 00:14:35;;;;;;;5.60;3.20;;;;;;;;;;516633;28;1293;-88
2022/06/12 00:14:51;;;;;;;4.82;3.20;;;;;;;;;;518189;28;1311;-88
2022/06/12 00:15:08;;;;;;;5.00;3.20;;;;;;;;;;518301;28;1228;-88
2022/06/12 00:15:26;;;;;;;5.25;3.20;;;;;;;;;;518197;28;1292;-88
2022/06/12 00:15:42;;;;;;;5.10;3.30;;;;;;;;;;518132;28;1396;-89
2022/06/12 00:15:58;;;;;;;4.28;3.30;;;;;;;;;;519703;28;935;-88
2022/06/12 00:16:14;;;;;;;3.83;3.30;;;;;;;;;;518161;28;1230;-89
2022/06/12 00:16:32;;;;;;;4.85;3.20;;;;;;;;;;518055;28;1914;-89
2022/06/12 00:16:52;;;;;;;5.10;3.17;;;;;;;;;;516154;28;1378;-88
2022/06/12 00:17:07;;;;;;;4.82;3.22;;;;;;;;;;516102;28;1492;-88
2022/06/12 00:17:23;;;;;;;4.80;3.30;;;;;;;;;;516115;28;1279;-88
2022/06/12 00:17:41;;;;;;;4.63;3.47;;;;;;;;;;516169;28;1345;-88
2022/06/12 00:17:57;;;;;;;4.95;3.45;;;;;;;;;;516084;28;1262;-89
2022/06/12 00:18:13;;;;;;;4.90;3.30;;;;;;;;;;516438;28;866;-89
2022/06/12 00:18:29;;;;;;;5.85;3.50;;;;;;;;;;516286;28;1250;-88
2022/06/12 00:18:44;;;;;;;7.57;3.53;;;;;;;;;;516286;28;1359;-88
2022/06/12 00:19:02;;;;;;;5.00;3.10;;;;;;;;;;514279;28;1479;-88
2022/06/12 00:19:17;;;;;;;4.10;3.15;;;;;;;;;;516210;28;1235;-88
2022/06/12 00:19:33;;;;;;;5.93;3.50;;;;;;;;;;516402;28;822;-88
2022/06/12 00:19:50;;;;;;;5.15;3.33;;;;;;;;;;514983;28;1301;-88
2022/06/12 00:20:06;;;;;;;4.60;3.33;;;;;;;;;;516365;28;963;-88
2022/06/12 00:20:25;;;;;;;5.25;3.50;;;;;;;;;;514162;28;1457;-88
2022/06/12 00:20:40;;;;;;;4.90;3.28;;;;;;;;;;515446;28;1369;-88
2022/06/12 00:21:11;;;;;;;4.43;3.37;;;;;;;;;;517496;28;1170;-88
2022/06/12 00:21:27;;;;;;;5.65;3.45;;;;;;;;;;518276;28;1570;-88
2022/06/12 00:21:43;;;;;;;5.20;3.58;;;;;;;;;;517454;28;1248;-88
2022/06/12 00:21:58;;;;;;;5.18;3.42;;;;;;;;;;516149;28;1240;-88
2022/06/12 00:22:14;;;;;;;5.13;3.40;;;;;;;;;;516219;28;1268;-88
2022/06/12 00:22:29;;;;;;;4.37;3.30;;;;;;;;;;516066;28;1279;-88
2022/06/12 00:22:45;;;;;;;4.72;3.33;;;;;;;;;;516045;28;1394;-89
2022/06/12 00:23:06;;;;;;;5.13;3.42;;;;;;;;;;516182;28;855;-88
2022/06/12 00:23:22;;;;;;;4.75;3.20;;;;;;;;;;516026;28;1425;-88
2022/06/12 00:23:51;;;;;;;5.15;3.20;;;;;;;;;;516060;28;1299;-88
2022/06/12 00:24:10;;;;;;;4.57;3.40;;;;;;;;;;517053;28;850;-88
2022/06/12 00:24:27;;;;;;;5.20;3.40;;;;;;;;;;516273;28;1351;-88
2022/06/12 00:24:43;;;;;;;4.60;3.10;;;;;;;;;;516253;28;1404;-88
2022/06/12 00:24:58;;;;;;;4.65;3.08;;;;;;;;;;514294;28;1239;-88
2022/06/12 00:25:15;;;;;;;5.60;3.33;;;;;;;;;;514252;28;1299;-89
2022/06/12 00:25:30;;;;;;;6.38;3.47;;;;;;;;;;516179;28;1524;-88
2022/06/12 00:25:46;;;;;;;5.53;3.30;;;;;;;;;;518305;28;1312;-88
2022/06/12 00:26:01;;;;;;;4.43;3.10;;;;;;;;;;516278;28;1330;-88
2022/06/12 00:26:22;;;;;;;4.10;3.20;;;;;;;;;;516090;28;1454;-88
2022/06/12 00:26:50;;;;;;;4.13;3.10;;;;;;;;;;516072;28;1195;-89
2022/06/12 00:27:07;;;;;;;5.20;3.47;;;;;;;;;;514134;28;917;-88
2022/06/12 00:27:22;;;;;;;5.28;3.40;;;;;;;;;;518088;28;1385;-88
2022/06/12 00:27:38;;;;;;;4.20;3.17;;;;;;;;;;518352;28;823;-88
2022/06/12 00:27:53;;;;;;;5.88;3.30;;;;;;;;;;518392;28;905;-88
2022/06/12 00:28:09;;;;;;;6.20;3.47;;;;;;;;;;519265;28;874;-89
2022/06/12 00:28:25;;;;;;;4.55;3.30;;;;;;;;;;518256;28;1373;-88
2022/06/12 00:28:40;;;;;;;4.77;3.40;;;;;;;;;;518058;28;1242;-89
2022/06/12 00:29:05;;;;;;;6.18;3.40;;;;;;;;;;518238;28;1155;-88
2022/06/12 00:29:24;;;;;;;6.80;3.33;;;;;;;;;;518399;28;901;-88
2022/06/12 00:29:41;;;;;;;4.38;3.40;;;;;;;;;;518163;28;1544;-88
2022/06/12 00:29:57;;;;;;;4.20;3.35;;;;;;;;;;518191;28;1334;-89
2022/06/12 00:30:16;;;;;;;4.63;3.17;;;;;;;;;;516059;28;1343;-88
2022/06/12 00:30:33;;;;;;;5.28;3.30;;;;;;;;;;516662;28;1623;-88
2022/06/12 00:30:48;;;;;;;4.65;3.40;;;;;;;;;;518098;28;1275;-88
2022/06/12 00:31:04;;;;;;;4.30;3.30;;;;;;;;;;518090;28;1267;-88
2022/06/12 00:31:19;;;;;;;4.85;3.20;;;;;;;;;;517947;28;1189;-88
2022/06/12 00:31:38;;;;;;;5.83;3.17;;;;;;;;;;518225;28;1035;-89
2022/06/12 00:31:59;;;;;;;4.88;3.30;;;;;;;;;;518235;28;937;-89
2022/06/12 00:32:16;;;;;;;5.55;3.20;;;;;;;;;;518101;28;1322;-88
2022/06/12 00:32:35;;;;;;;6.45;3.40;;;;;;;;;;516009;28;1225;-88
2022/06/12 00:32:52;;;;;;;4.95;3.35;;;;;;;;;;516092;28;1267;-88
2022/06/12 00:33:08;;;;;;;4.00;3.20;;;;;;;;;;518128;28;893;-88
2022/06/12 00:33:23;;;;;;;4.13;3.20;;;;;;;;;;516180;28;1220;-88
2022/06/12 00:33:39;;;;;;;4.40;3.30;;;;;;;;;;516320;28;1182;-88
2022/06/12 00:33:54;;;;;;;4.37;3.40;;;;;;;;;;516240;28;1173;-88
2022/06/12 00:34:11;;;;;;;3.97;3.30;;;;;;;;;;516240;28;1221;-89
2022/06/12 00:34:31;;;;;;;4.53;3.17;;;;;;;;;;516254;28;1395;-88
2022/06/12 00:34:52;;;;;;;5.32;3.25;;;;;;;;;;516266;28;1358;-88
2022/06/12 00:35:10;;;;;;;4.45;3.20;;;;;;;;;;516430;28;1077;-88
2022/06/12 00:35:29;;;;;;;4.47;3.10;;;;;;;;;;516545;28;953;-88
2022/06/12 00:35:45;;;;;;;5.35;3.17;;;;;;;;;;516157;28;1470;-88
2022/06/12 00:36:01;;;;;;;5.80;3.40;;;;;;;;;;514306;28;1389;-88
2022/06/12 00:36:17;;;;;;;5.47;3.25;;;;;;;;;;512718;28;1202;-88
2022/06/12 00:36:32;;;;;;;4.78;3.17;;;;;;;;;;514188;28;1899;-89
2022/06/12 00:36:48;;;;;;;4.63;3.20;;;;;;;;;;516264;28;1274;-88
2022/06/12 00:37:05;;;;;;;4.45;3.17;;;;;;;;;;516288;28;918;-88
2022/06/12 00:37:23;;;;;;;4.35;3.22;;;;;;;;;;514219;28;1365;-88
2022/06/12 00:37:38;;;;;;;4.68;3.20;;;;;;;;;;515259;28;1220;-88
2022/06/12 00:37:54;;;;;;;6.80;3.30;;;;;;;;;;516155;28;1251;-89
2022/06/12 00:38:09;;;;;;;6.67;3.30;;;;;;;;;;516272;28;1420;-88
2022/06/12 00:38:26;;;;;;;4.50;3.22;;;;;;;;;;516107;28;1414;-89
2022/06/12 00:38:41;;;;;;;4.38;3.40;;;;;;;;;;516116;28;1398;-88
2022/06/12 00:38:57;;;;;;;5.35;3.58;;;;;;;;;;516018;28;1369;-88
2022/06/12 00:39:16;;;;;;;5.77;3.50;;;;;;;;;;518059;28;1184;-88
2022/06/12 00:39:32;;;;;;;4.97;3.22;;;;;;;;;;518286;28;1358;-88
2022/06/12 00:39:50;;;;;;;4.38;3.10;;;;;;;;;;518382;28;1377;-88
2022/06/12 00:40:06;;;;;;;4.93;3.20;;;;;;;;;;516363;28;1361;-88
2022/06/12 00:40:27;;;;;;;5.40;3.22;;;;;;;;;;516188;28;1126;-88
2022/06/12 00:40:43;;;;;;;4.10;3.25;;;;;;;;;;516353;28;894;-89
2022/06/12 00:40:59;;;;;;;4.73;3.20;;;;;;;;;;516099;28;1165;-88
2022/06/12 00:41:14;;;;;;;4.95;3.20;;;;;;;;;;516080;28;1483;-88
2022/06/12 00:41:30;;;;;;;5.00;3.30;;;;;;;;;;516316;28;1028;-88
2022/06/12 00:41:47;;;;;;;6.23;3.27;;;;;;;;;;517911;28;1374;-88
2022/06/12 00:42:07;;;;;;;5.50;3.13;;;;;;;;;;517684;28;1232;-88
2022/06/12 00:42:44;;;;;;;5.70;3.20;;;;;;;;;;518340;28;945;-88
2022/06/12 00:43:02;;;;;;;5.68;3.10;;;;;;;;;;518167;28;1241;-88
2022/06/12 00:43:18;;;;;;;5.22;3.30;;;;;;;;;;520300;28;1242;-88
2022/06/12 00:43:33;;;;;;;4.30;3.30;;;;;;;;;;520374;28;1003;-88
2022/06/12 00:43:49;;;;;;;4.22;3.25;;;;;;;;;;518178;28;1301;-88
2022/06/12 00:44:07;;;;;;;6.28;3.30;;;;;;;;;;518168;28;1199;-89
2022/06/12 00:44:29;;;;;;;7.40;3.45;;;;;;;;;;516024;28;1328;-88
2022/06/12 00:44:45;;;;;;;6.93;3.60;;;;;;;;;;516065;28;961;-89
2022/06/12 00:45:22;;;;;;;5.80;3.60;;;;;;;;;;515995;28;1326;-89
2022/06/12 00:45:49;;;;;;;4.82;3.10;;;;;;;;;;517375;28;1453;-89
2022/06/12 00:46:06;;;;;;;4.82;3.35;;;;;;;;;;518004;28;1204;-89
2022/06/12 00:46:40;;;;;;;4.10;3.20;;;;;;;;;;516210;28;1468;-89
2022/06/12 00:46:58;;;;;;;5.85;3.45;;;;;;;;;;516125;28;957;-88
2022/06/12 00:47:15;;;;;;;4.82;3.40;;;;;;;;;;516010;28;1268;-88
2022/06/12 00:47:31;;;;;;;4.80;3.45;;;;;;;;;;517034;28;1386;-89
2022/06/12 00:47:46;;;;;;;4.23;3.30;;;;;;;;;;518194;28;1001;-88
2022/06/12 00:48:07;;;;;;;4.20;3.20;;;;;;;;;;519506;28;1304;-89
2022/06/12 00:48:27;;;;;;;3.95;3.25;;;;;;;;;;520113;28;1271;-89
2022/06/12 00:48:42;;;;;;;4.90;3.38;;;;;;;;;;520226;28;958;-89
2022/06/12 00:48:58;;;;;;;4.90;3.45;;;;;;;;;;518007;28;1105;-88
2022/06/12 00:49:19;;;;;;;4.17;3.20;;;;;;;;;;518062;28;1159;-88
2022/06/12 00:49:40;;;;;;;4.50;3.20;;;;;;;;;;518144;28;932;-88
2022/06/12 00:50:00;;;;;;;4.60;3.45;;;;;;;;;;516943;28;1406;-88
2022/06/12 00:50:15;;;;;;;4.10;3.38;;;;;;;;;;516150;28;1419;-88
2022/06/12 00:50:31;;;;;;;4.50;3.13;;;;;;;;;;516048;28;1220;-88
2022/06/12 00:51:06;;;;;;;4.30;3.03;;;;;;;;;;516298;28;1268;-88
2022/06/12 00:51:21;;;;;;;5.50;3.10;;;;;;;;;;520100;28;989;-89
2022/06/12 00:51:38;;;;;;;5.50;3.17;;;;;;;;;;518225;28;1286;-89
2022/06/12 00:52:07;;;;;;;4.85;3.17;;;;;;;;;;518228;28;1310;-89
2022/06/12 00:52:33;;;;;;;4.95;3.30;;;;;;;;;;518194;28;898;-89
2022/06/12 00:52:50;;;;;;;4.50;3.10;;;;;;;;;;516126;28;1239;-89
2022/06/12 00:53:11;;;;;;;5.15;3.28;;;;;;;;;;516231;28;1228;-89
2022/06/12 00:53:35;;;;;;;5.35;3.47;;;;;;;;;;516665;28;1236;-89
2022/06/12 00:53:59;;;;;;;5.43;3.40;;;;;;;;;;518255;28;956;-89
2022/06/12 00:54:16;;;;;;;5.80;3.40;;;;;;;;;;518880;28;1389;-88
2022/06/12 00:54:33;;;;;;;4.28;3.17;;;;;;;;;;518259;28;1247;-89
2022/06/12 00:54:54;;;;;;;4.40;3.00;;;;;;;;;;516274;28;1350;-89
2022/06/12 00:55:17;;;;;;;4.50;3.40;;;;;;;;;;516148;28;1388;-88
2022/06/12 00:55:55;;;;;;;4.00;3.40;;;;;;;;;;518173;28;1438;-89
2022/06/12 00:56:19;;;;;;;3.65;3.00;;;;;;;;;;517899;28;1242;-89
2022/06/12 00:56:39;;;;;;;4.10;3.17;;;;;;;;;;520039;28;1996;-89
2022/06/12 00:56:57;;;;;;;5.57;3.30;;;;;;;;;;520165;28;1114;-89
2022/06/12 00:57:13;;;;;;;5.10;3.40;;;;;;;;;;520242;28;1278;-89
2022/06/12 00:57:29;;;;;;;4.55;3.30;;;;;;;;;;518168;28;1282;-88
2022/06/12 00:57:45;;;;;;;4.70;3.35;;;;;;;;;;518221;28;1536;-88
2022/06/12 00:58:12;;;;;;;5.03;3.30;;;;;;;;;;518810;28;965;-88
2022/06/12 00:58:33;;;;;;;5.53;3.30;;;;;;;;;;517975;28;957;-88
2022/06/12 00:58:59;;;;;;;5.78;3.30;;;;;;;;;;515873;28;1211;-89
2022/06/12 00:59:23;;;;;;;4.75;3.40;;;;;;;;;;513991;28;866;-89
2022/06/12 00:59:46;;;;;;;5.95;3.30;;;;;;;;;;516745;28;1327;-89
2022/06/12 01:00:08;;;;;;;6.65;3.35;;;;;;;;;;517921;28;1084;-89
2022/06/12 01:00:23;;;;;;;7.28;3.20;;;;;;;;;;519342;28;1274;-89
2022/06/12 01:00:39;;;;;;;4.93;3.20;;;;;;;;;;520721;28;1040;-89
2022/06/12 01:00:55;;;;;;;5.60;3.35;;;;;;;;;;520216;28;1265;-89
2022/06/12 01:01:18;;;;;;;4.63;3.17;;;;;;;;;;518177;28;1260;-89
2022/06/12 01:01:40;;;;;;;4.10;3.20;;;;;;;;;;518236;28;1358;-89
2022/06/12 01:01:57;;;;;;;4.28;3.25;;;;;;;;;;518191;28;1279;-89
2022/06/12 01:02:16;;;;;;;4.60;3.30;;;;;;;;;;516058;28;1351;-89
2022/06/12 01:02:34;;;;;;;6.10;3.40;;;;;;;;;;514000;28;1218;-89
2022/06/12 01:02:49;;;;;;;7.15;3.40;;;;;;;;;;516007;28;1343;-88
2022/06/12 01:03:06;;;;;;;7.72;3.40;;;;;;;;;;517913;28;1341;-88
2022/06/12 01:03:22;;;;;;;6.85;3.25;;;;;;;;;;516088;28;1393;-88
2022/06/12 01:06:33;;;;;;;4.85;3.05;;;;;;;;;;516220;28;1359;-88
2022/06/12 01:06:36;;;;;;;5.68;3.22;;;;;;;;;;522056;28;699;-88
2022/06/12 01:06:55;;;;;;;4.90;3.20;;;;;;;;;;520015;28;1461;-89
2022/06/12 01:07:16;;;;;;;4.53;3.28;;;;;;;;;;517910;28;1524;-88
2022/06/12 01:07:37;;;;;;;6.30;3.45;;;;;;;;;;515867;28;1272;-89
2022/06/12 01:08:03;;;;;;;4.43;3.10;;;;;;;;;;517895;28;1220;-89
2022/06/12 01:08:19;;;;;;;5.32;3.33;;;;;;;;;;515909;28;1265;-89
2022/06/12 01:08:35;;;;;;;5.55;3.25;;;;;;;;;;513889;28;1233;-88
2022/06/12 01:08:50;;;;;;;6.22;3.30;;;;;;;;;;515632;28;854;-88
2022/06/12 01:09:13;;;;;;;5.77;3.50;;;;;;;;;;515112;28;1227;-88
2022/06/12 01:09:32;;;;;;;6.40;3.30;;;;;;;;;;516023;28;1374;-88
2022/06/12 01:09:52;;;;;;;5.90;3.20;;;;;;;;;;516072;28;948;-89
2022/06/12 01:10:10;;;;;;;4.50;3.00;;;;;;;;;;516402;28;858;-88
2022/06/12 01:10:28;;;;;;;3.97;3.00;;;;;;;;;;516458;28;1307;-89
2022/06/12 01:10:47;;;;;;;4.80;3.50;;;;;;;;;;518025;28;1393;-88
2022/06/12 01:11:08;;;;;;;4.97;3.53;;;;;;;;;;514548;28;1248;-89
2022/06/12 01:11:23;;;;;;;5.47;3.30;;;;;;;;;;513055;28;1196;-89
2022/06/12 01:11:43;;;;;;;5.87;3.40;;;;;;;;;;512038;29;1194;-88
2022/06/12 01:12:02;;;;;;;5.95;3.40;;;;;;;;;;511988;29;1295;-89
2022/06/12 01:12:22;;;;;;;6.20;3.30;;;;;;;;;;514141;28;1201;-89
2022/06/12 01:12:43;;;;;;;5.47;3.25;;;;;;;;;;515277;28;997;-88
2022/06/12 01:13:07;;;;;;;5.22;3.08;;;;;;;;;;517355;28;945;-89
2022/06/12 01:13:27;;;;;;;5.68;3.38;;;;;;;;;;519724;28;1239;-88
2022/06/12 01:13:45;;;;;;;5.72;3.40;;;;;;;;;;522408;28;1043;-88
2022/06/12 01:14:04;;;;;;;6.25;3.28;;;;;;;;;;520199;28;1405;-88
2022/06/12 01:14:25;;;;;;;4.65;3.22;;;;;;;;;;517852;28;1325;-88
2022/06/12 01:14:45;;;;;;;4.68;3.30;;;;;;;;;;516009;28;1268;-88
2022/06/12 01:15:24;;;;;;;4.07;3.00;;;;;;;;;;516114;28;922;-88
2022/06/12 01:15:53;;;;;;;4.65;3.33;;;;;;;;;;514004;28;1430;-88
2022/06/12 01:16:15;;;;;;;4.15;3.25;;;;;;;;;;516487;28;1240;-88
2022/06/12 01:16:31;;;;;;;4.97;3.22;;;;;;;;;;518468;28;1969;-88
2022/06/12 01:16:48;;;;;;;6.10;3.28;;;;;;;;;;517947;28;1910;-88
2022/06/12 01:17:05;;;;;;;5.03;3.30;;;;;;;;;;516196;28;1408;-88
2022/06/12 01:17:22;;;;;;;5.77;3.30;;;;;;;;;;514104;28;1347;-88
2022/06/12 01:17:39;;;;;;;4.75;3.25;;;;;;;;;;512153;29;1372;-88
2022/06/12 01:17:56;;;;;;;4.45;3.20;;;;;;;;;;514221;28;1260;-88
2022/06/12 01:18:14;;;;;;;4.35;3.15;;;;;;;;;;513986;28;1053;-89
2022/06/12 01:18:35;;;;;;;3.92;3.08;;;;;;;;;;515741;28;858;-89
2022/06/12 01:18:54;;;;;;;4.75;3.22;;;;;;;;;;515916;28;1381;-89
2022/06/12 01:19:16;;;;;;;6.55;3.28;;;;;;;;;;518408;28;1374;-89
2022/06/12 01:19:45;;;;;;;5.07;3.30;;;;;;;;;;518822;28;1387;-89
2022/06/12 01:20:08;;;;;;;5.78;3.20;;;;;;;;;;515958;28;1111;-89
2022/06/12 01:20:28;;;;;;;6.13;3.13;;;;;;;;;;515780;28;1256;-89
2022/06/12 01:20:58;;;;;;;7.05;3.10;;;;;;;;;;516762;28;1512;-88
2022/06/12 01:21:47;;;;;;;5.55;3.35;;;;;;;;;;517965;28;1235;-88
2022/06/12 01:22:33;;;;;;;7.03;3.47;;;;;;;;;;520216;28;1143;-88
2022/06/12 01:22:58;;;;;;;4.75;3.35;;;;;;;;;;522205;28;1331;-88
2022/06/12 01:23:32;;;;;;;4.53;3.38;;;;;;;;;;522202;28;877;-89
2022/06/12 01:24:20;;;;;;;4.72;3.22;;;;;;;;;;519995;28;1420;-89
2022/06/12 01:24:46;;;;;;;4.00;3.10;;;;;;;;;;516550;28;1236;-88
2022/06/12 01:25:39;;;;;;;4.05;3.10;;;;;;;;;;521955;28;1237;-89
2022/06/12 01:26:21;;;;;;;4.50;3.10;;;;;;;;;;521912;28;1263;-89
2022/06/12 01:26:43;;;;;;;4.65;3.22;;;;;;;;;;519940;28;1466;-88
2022/06/12 01:27:09;;;;;;;3.83;3.35;;;;;;;;;;517887;28;1312;-88
2022/06/12 01:27:44;;;;;;;4.10;3.15;;;;;;;;;;517971;28;1240;-89
2022/06/12 01:28:27;;;;;;;4.97;3.10;;;;;;;;;;520311;28;1216;-89
2022/06/12 01:28:45;;;;;;;5.53;2.90;;;;;;;;;;520157;28;892;-89
2022/06/12 01:29:07;;;;;;;6.18;3.22;;;;;;;;;;520067;28;1224;-89
2022/06/12 01:29:39;;;;;;;6.45;3.47;;;;;;;;;;520144;28;1051;-88
2022/06/12 01:30:21;;;;;;;4.70;3.22;;;;;;;;;;521367;28;1123;-88
2022/06/12 01:31:02;;;;;;;4.32;3.17;;;;;;;;;;520231;28;1383;-89
2022/06/12 01:31:39;;;;;;;4.90;3.33;;;;;;;;;;513805;28;1534;-88
2022/06/12 01:32:03;;;;;;;5.28;3.40;;;;;;;;;;517893;28;1338;-89
2022/06/12 01:32:30;;;;;;;5.22;3.10;;;;;;;;;;517832;28;960;-89
2022/06/12 01:33:02;;;;;;;5.22;3.47;;;;;;;;;;517871;28;1398;-89
2022/06/12 01:33:26;;;;;;;4.82;3.20;;;;;;;;;;519662;28;1068;-88
2022/06/12 01:33:47;;;;;;;4.50;3.15;;;;;;;;;;520031;28;850;-89
2022/06/12 01:34:31;;;;;;;5.07;3.30;;;;;;;;;;520042;28;1391;-89
2022/06/12 01:34:55;;;;;;;5.13;3.20;;;;;;;;;;520143;28;1376;-88
2022/06/12 01:35:21;;;;;;;4.57;3.40;;;;;;;;;;520083;28;885;-88
2022/06/12 01:35:54;;;;;;;4.47;3.30;;;;;;;;;;519850;28;1342;-88
2022/06/12 01:36:24;;;;;;;4.38;3.20;;;;;;;;;;519919;28;885;-88
2022/06/12 01:36:55;;;;;;;4.78;3.10;;;;;;;;;;519880;28;1906;-88
2022/06/12 01:37:36;;;;;;;4.75;3.05;;;;;;;;;;517943;28;952;-88
2022/06/12 01:38:11;;;;;;;3.97;3.10;;;;;;;;;;518046;28;1321;-88
2022/06/12 01:38:46;;;;;;;5.60;3.00;;;;;;;;;;518114;28;1312;-88
2022/06/12 01:39:14;;;;;;;4.18;3.28;;;;;;;;;;518742;28;1268;-89
2022/06/12 01:39:46;;;;;;;4.03;3.20;;;;;;;;;;519905;28;1430;-88
2022/06/12 01:40:24;;;;;;;4.60;3.30;;;;;;;;;;517947;28;1404;-88
2022/06/12 01:41:07;;;;;;;5.88;3.50;;;;;;;;;;518163;28;1558;-89
2022/06/12 01:41:34;;;;;;;3.70;3.08;;;;;;;;;;517419;28;1396;-89
2022/06/12 01:42:21;;;;;;;5.63;3.20;;;;;;;;;;518378;28;1107;-89
2022/06/12 01:42:47;;;;;;;4.88;3.28;;;;;;;;;;513391;28;1307;-89
2022/06/12 01:43:17;;;;;;;5.72;3.28;;;;;;;;;;514063;28;1312;-88
2022/06/12 01:43:43;;;;;;;5.30;3.05;;;;;;;;;;511796;28;1115;-88
2022/06/12 01:44:42;;;;;;;4.25;3.28;;;;;;;;;;518160;28;1008;-88
2022/06/12 01:45:35;;;;;;;4.35;3.17;;;;;;;;;;518239;28;1516;-88
2022/06/12 01:45:57;;;;;;;5.90;3.28;;;;;;;;;;522046;28;877;-88
2022/06/12 01:46:18;;;;;;;5.03;3.30;;;;;;;;;;519879;28;1346;-89
2022/06/12 01:47:02;;;;;;;4.95;3.30;;;;;;;;;;518059;28;1258;-88
2022/06/12 01:47:29;;;;;;;4.75;3.28;;;;;;;;;;511637;29;1315;-88
2022/06/12 01:47:58;;;;;;;7.18;3.60;;;;;;;;;;515951;28;1165;-88
2022/06/12 01:48:25;;;;;;;5.47;3.50;;;;;;;;;;515993;28;1347;-88
2022/06/12 01:48:43;;;;;;;5.72;3.20;;;;;;;;;;513828;28;1249;-89
2022/06/12 01:49:17;;;;;;;4.35;3.05;;;;;;;;;;513860;28;1361;-89
2022/06/12 01:50:04;;;;;;;5.93;3.30;;;;;;;;;;514122;28;985;-89
2022/06/12 01:50:28;;;;;;;5.60;3.47;;;;;;;;;;518032;28;827;-89
2022/06/12 01:50:53;;;;;;;6.70;3.30;;;;;;;;;;519860;28;845;-88
2022/06/12 01:51:23;;;;;;;5.43;3.17;;;;;;;;;;519854;28;1017;-88
2022/06/12 01:52:01;;;;;;;5.32;3.30;;;;;;;;;;519628;28;1493;-88
2022/06/12 01:52:29;;;;;;;5.28;3.17;;;;;;;;;;517830;28;1358;-88
2022/06/12 01:53:12;;;;;;;5.78;3.40;;;;;;;;;;516047;28;1478;-88
2022/06/12 01:53:52;;;;;;;5.20;3.22;;;;;;;;;;514439;28;1283;-89
2022/06/12 01:54:29;;;;;;;6.05;3.42;;;;;;;;;;510468;29;1428;-89
2022/06/12 01:54:49;;;;;;;4.57;3.25;;;;;;;;;;520061;28;869;-88
2022/06/12 01:55:10;;;;;;;4.65;3.28;;;;;;;;;;518175;28;1220;-88
2022/06/12 01:55:55;;;;;;;4.90;3.28;;;;;;;;;;517725;28;1412;-88
2022/06/12 01:56:29;;;;;;;5.75;3.38;;;;;;;;;;515893;28;1387;-88
2022/06/12 01:56:52;;;;;;;4.63;3.28;;;;;;;;;;515817;28;1309;-89
2022/06/12 01:57:27;;;;;;;4.75;3.33;;;;;;;;;;515898;28;1284;-89
2022/06/12 01:58:15;;;;;;;6.72;3.28;;;;;;;;;;515700;28;966;-88
2022/06/12 01:58:45;;;;;;;6.80;3.28;;;;;;;;;;510411;28;1302;-88
2022/06/12 01:59:16;;;;;;;5.28;3.10;;;;;;;;;;516892;28;1405;-88
2022/06/12 01:59:38;;;;;;;4.85;3.17;;;;;;;;;;515848;28;1239;-89
2022/06/12 02:00:02;;;;;;;4.80;3.13;;;;;;;;;;514012;28;882;-89
2022/06/12 02:00:21;;;;;;;5.97;3.45;;;;;;;;;;512114;28;1471;-89
2022/06/12 02:00:40;;;;;;;5.57;3.13;;;;;;;;;;512102;28;1380;-89
2022/06/12 02:01:12;;;;;;;5.15;2.92;;;;;;;;;;513208;28;1341;-88
2022/06/12 02:01:31;;;;;;;4.93;3.15;;;;;;;;;;515424;28;961;-89
2022/06/12 02:02:01;;;;;;;4.90;3.10;;;;;;;;;;516160;28;1390;-89
2022/06/12 02:02:29;;;;;;;6.63;3.13;;;;;;;;;;515757;28;1177;-89
2022/06/12 02:03:12;;;;;;;5.10;3.25;;;;;;;;;;515952;28;1445;-89
2022/06/12 02:03:33;;;;;;;7.90;3.45;;;;;;;;;;513893;28;918;-89
2022/06/12 02:04:31;;;;;;;5.88;3.22;;;;;;;;;;515613;28;1359;-89
2022/06/12 02:05:00;;;;;;;6.82;3.28;;;;;;;;;;507855;29;1289;-88
2022/06/12 02:05:23;;;;;;;4.45;3.20;;;;;;;;;;508029;29;1061;-89
2022/06/12 02:05:52;;;;;;;4.72;3.30;;;;;;;;;;508321;29;1526;-89
2022/06/12 02:06:13;;;;;;;6.13;3.40;;;;;;;;;;509843;29;1548;-89
2022/06/12 02:06:49;;;;;;;5.43;3.40;;;;;;;;;;510037;29;1253;-88
2022/06/12 02:07:42;;;;;;;5.22;3.25;;;;;;;;;;511799;29;1390;-89
2022/06/12 02:08:19;;;;;;;6.53;3.22;;;;;;;;;;511797;28;1246;-88
2022/06/12 02:08:45;;;;;;;5.13;3.00;;;;;;;;;;511925;29;930;-88
2022/06/12 02:09:08;;;;;;;4.80;3.30;;;;;;;;;;510636;28;1489;-88
2022/06/12 02:09:59;;;;;;;5.00;3.03;;;;;;;;;;509820;29;1415;-88
2022/06/12 02:10:23;;;;;;;4.57;2.95;;;;;;;;;;509373;29;1272;-88
2022/06/12 02:10:54;;;;;;;5.07;3.10;;;;;;;;;;507814;28;1302;-88
2022/06/12 02:13:27;;;;;;;6.22;3.42;;;;;;;;;;522312;28;664;-88
2022/06/12 02:13:47;;;;;;;5.63;2.90;;;;;;;;;;522361;28;821;-89
2022/06/12 02:14:04;;;;;;;4.22;3.00;;;;;;;;;;520146;28;1303;-88
2022/06/12 02:14:24;;;;;;;6.30;3.20;;;;;;;;;;520253;28;905;-88
2022/06/12 02:14:49;;;;;;;7.35;3.05;;;;;;;;;;520250;28;1007;-88
2022/06/12 02:15:13;;;;;;;7.68;2.90;;;;;;;;;;517937;28;1406;-88
2022/06/12 02:15:31;;;;;;;5.13;2.95;;;;;;;;;;518017;28;1284;-88
2022/06/12 02:16:05;;;;;;;4.85;3.00;;;;;;;;;;515919;28;1442;-89
2022/06/12 02:16:35;;;;;;;7.15;2.97;;;;;;;;;;517898;28;1544;-89
2022/06/12 02:16:55;;;;;;;5.55;2.80;;;;;;;;;;518147;28;1039;-88
2022/06/12 02:17:17;;;;;;;4.60;2.80;;;;;;;;;;518052;28;1483;-88
2022/06/12 02:17:44;;;;;;;5.07;2.83;;;;;;;;;;518054;28;1243;-88
2022/06/12 02:18:03;;;;;;;5.78;2.95;;;;;;;;;;518074;28;1241;-89
2022/06/12 02:18:22;;;;;;;6.15;3.10;;;;;;;;;;518075;28;1296;-88
2022/06/12 02:18:50;;;;;;;4.72;3.00;;;;;;;;;;517988;28;882;-88
2022/06/12 02:19:18;;;;;;;4.25;2.85;;;;;;;;;;517373;28;1568;-88
2022/06/12 02:19:40;;;;;;;5.10;3.00;;;;;;;;;;516056;28;1271;-89
2022/06/12 02:19:56;;;;;;;4.90;2.97;;;;;;;;;;515876;28;1464;-88
2022/06/12 02:20:15;;;;;;;6.20;3.10;;;;;;;;;;515670;28;1383;-89
2022/06/12 02:20:35;;;;;;;4.93;2.70;;;;;;;;;;515692;28;1260;-88
2022/06/12 02:21:01;;;;;;;5.03;2.88;;;;;;;;;;515742;28;1438;-88
2022/06/12 02:21:28;;;;;;;4.28;3.03;;;;;;;;;;513747;28;1257;-88
2022/06/12 02:21:54;;;;;;;6.22;3.10;;;;;;;;;;516403;28;908;-89
2022/06/12 02:22:12;;;;;;;6.43;3.30;;;;;;;;;;517521;28;1259;-88
2022/06/12 02:22:31;;;;;;;5.15;3.22;;;;;;;;;;515879;28;1248;-88